sensor_id;sensor_type;location;lat;lon;timestamp;pressure;altitude;pressure_sealevel;temperature;humidity
49585;BME280;35491;49.142;9.210;2023-05-20T11:45:46;99651.63;;;22.36;43.40
49585;BME280;35491;49.142;9.210;2023-05-20T11:59:30;99636.19;;;22.61;42.92
49585;BME280;35491;49.142;9.210;2023-05-20T12:16:50;99630.31;;;22.87;42.77
49585;BME280;35491;49.142;9.210;2023-05-20T12:18:58;99624.63;;;23.01;43.07
49585;BME280;35491;49.142;9.210;2023-05-20T12:20:03;99612.44;;;22.92;43.03
49585;BME280;35491;49.142;9.210;2023-05-20T12:21:06;99615.97;;;22.92;43.20
49585;BME280;35491;49.142;9.210;2023-05-20T12:22:09;99619.78;;;23.03;42.86
49585;BME280;35491;49.142;9.210;2023-05-20T12:23:10;99612.53;;;22.97;43.00
49585;BME280;35491;49.142;9.210;2023-05-20T12:24:14;99616.09;;;22.97;43.16
49585;BME280;35491;49.142;9.210;2023-05-20T12:25:17;99612.41;;;23.03;43.27
49585;BME280;35491;49.142;9.210;2023-05-20T12:26:21;99619.75;;;22.79;43.61
49585;BME280;35491;49.142;9.210;2023-05-20T12:27:22;99613.84;;;22.82;43.94
49585;BME280;35491;49.142;9.210;2023-05-20T12:28:26;99619.41;;;22.87;43.92
49585;BME280;35491;49.142;9.210;2023-05-20T12:29:27;99617.19;;;22.84;44.00
49585;BME280;35491;49.142;9.210;2023-05-20T12:30:30;99606.84;;;22.86;44.00
49585;BME280;35491;49.142;9.210;2023-05-20T12:31:31;99611.84;;;22.78;44.08
49585;BME280;35491;49.142;9.210;2023-05-20T12:32:38;99609.25;;;22.95;43.26
49585;BME280;35491;49.142;9.210;2023-05-20T12:33:39;99596.09;;;22.92;43.60
49585;BME280;35491;49.142;9.210;2023-05-20T12:34:42;99611.72;;;22.96;43.22
49585;BME280;35491;49.142;9.210;2023-05-20T12:35:43;99606.72;;;23.05;43.19
49585;BME280;35491;49.142;9.210;2023-05-20T12:36:47;99611.00;;;22.77;43.52
49585;BME280;35491;49.142;9.210;2023-05-20T12:37:48;99606.63;;;22.76;43.47
49585;BME280;35491;49.142;9.210;2023-05-20T12:38:52;99610.06;;;22.83;43.31
49585;BME280;35491;49.142;9.210;2023-05-20T12:39:53;99602.97;;;22.70;43.51
49585;BME280;35491;49.142;9.210;2023-05-20T12:41:58;99596.31;;;23.14;42.68
49585;BME280;35491;49.142;9.210;2023-05-20T12:43:03;99598.34;;;22.95;42.81
49585;BME280;35491;49.142;9.210;2023-05-20T12:44:04;99597.03;;;22.97;42.93
49585;BME280;35491;49.142;9.210;2023-05-20T12:45:08;99587.78;;;22.98;43.11
49585;BME280;35491;49.142;9.210;2023-05-20T12:46:10;99592.88;;;23.18;42.57
49585;BME280;35491;49.142;9.210;2023-05-20T12:48:18;99604.16;;;22.98;43.04
49585;BME280;35491;49.142;9.210;2023-05-20T12:49:22;99595.94;;;22.86;43.22
49585;BME280;35491;49.142;9.210;2023-05-20T12:50:23;99607.09;;;22.97;43.12
49585;BME280;35491;49.142;9.210;2023-05-20T12:51:27;99601.66;;;23.20;42.77
49585;BME280;35491;49.142;9.210;2023-05-20T12:52:28;99602.34;;;23.28;42.59
49585;BME280;35491;49.142;9.210;2023-05-20T12:53:32;99589.78;;;23.27;42.44
49585;BME280;35491;49.142;9.210;2023-05-20T12:54:33;99605.34;;;23.26;42.69
49585;BME280;35491;49.142;9.210;2023-05-20T12:55:37;99607.22;;;23.26;42.83
49585;BME280;35491;49.142;9.210;2023-05-20T12:56:41;99590.84;;;23.14;42.96
49585;BME280;35491;49.142;9.210;2023-05-20T12:57:43;99602.59;;;23.26;42.82
49585;BME280;35491;49.142;9.210;2023-05-20T12:58:47;99591.88;;;23.48;42.27
49585;BME280;35491;49.142;9.210;2023-05-20T12:59:48;99594.31;;;23.74;42.19
49585;BME280;35491;49.142;9.210;2023-05-20T13:00:52;99597.66;;;23.93;42.00
49585;BME280;35491;49.142;9.210;2023-05-20T13:02:57;99601.34;;;23.58;42.14
49585;BME280;35491;49.142;9.210;2023-05-20T13:04:04;99597.13;;;23.79;41.76
49585;BME280;35491;49.142;9.210;2023-05-20T13:05:05;99585.59;;;23.48;41.42
49585;BME280;35491;49.142;9.210;2023-05-20T13:06:09;99594.44;;;23.26;42.01
49585;BME280;35491;49.142;9.210;2023-05-20T13:07:10;99591.66;;;23.38;41.82
49585;BME280;35491;49.142;9.210;2023-05-20T13:08:14;99589.88;;;23.44;41.77
49585;BME280;35491;49.142;9.210;2023-05-20T13:09:15;99585.91;;;23.63;41.68
49585;BME280;35491;49.142;9.210;2023-05-20T13:10:19;99587.13;;;23.56;41.24
49585;BME280;35491;49.142;9.210;2023-05-20T13:11:23;99592.34;;;23.45;41.56
49585;BME280;35491;49.142;9.210;2023-05-20T13:12:24;99576.34;;;23.49;41.61
49585;BME280;35491;49.142;9.210;2023-05-20T13:14:35;99580.34;;;23.58;41.82
49585;BME280;35491;49.142;9.210;2023-05-20T13:15:39;99582.41;;;23.39;41.54
49585;BME280;35491;49.142;9.210;2023-05-20T13:16:40;99582.38;;;23.51;41.88
49585;BME280;35491;49.142;9.210;2023-05-20T13:18:52;99581.44;;;23.45;41.61
49585;BME280;35491;49.142;9.210;2023-05-20T13:19:59;99581.13;;;23.30;41.45
49585;BME280;35491;49.142;9.210;2023-05-20T13:21:03;99581.25;;;23.23;41.74
49585;BME280;35491;49.142;9.210;2023-05-20T13:23:11;99575.22;;;23.62;41.57
49585;BME280;35491;49.142;9.210;2023-05-20T13:25:23;99579.72;;;23.68;41.37
49585;BME280;35491;49.142;9.210;2023-05-20T13:26:27;99577.09;;;23.73;41.10
49585;BME280;35491;49.142;9.210;2023-05-20T13:27:28;99580.41;;;23.75;40.93
49585;BME280;35491;49.142;9.210;2023-05-20T13:30:37;99568.69;;;23.75;40.97
49585;BME280;35491;49.142;9.210;2023-05-20T13:33:48;99578.59;;;23.81;41.12
49585;BME280;35491;49.142;9.210;2023-05-20T13:34:52;99583.25;;;23.80;41.34
49585;BME280;35491;49.142;9.210;2023-05-20T13:36:57;99578.28;;;23.77;40.98
49585;BME280;35491;49.142;9.210;2023-05-20T13:38:00;99576.94;;;23.51;41.66
49585;BME280;35491;49.142;9.210;2023-05-20T13:39:01;99571.59;;;23.56;41.33
49585;BME280;35491;49.142;9.210;2023-05-20T13:40:06;99566.50;;;23.48;41.53
49585;BME280;35491;49.142;9.210;2023-05-20T13:41:08;99564.59;;;23.48;41.78
49585;BME280;35491;49.142;9.210;2023-05-20T13:45:56;99548.31;;;23.65;41.87
49585;BME280;35491;49.142;9.210;2023-05-20T13:48:01;99550.81;;;23.96;41.06
49585;BME280;35491;49.142;9.210;2023-05-20T13:49:05;99555.41;;;23.66;41.56
49585;BME280;35491;49.142;9.210;2023-05-20T13:50:07;99546.41;;;23.66;41.79
49585;BME280;35491;49.142;9.210;2023-05-20T13:51:11;99555.06;;;23.63;42.04
49585;BME280;35491;49.142;9.210;2023-05-20T13:53:16;99550.31;;;23.70;41.84
49585;BME280;35491;49.142;9.210;2023-05-20T13:54:20;99542.41;;;23.57;42.01
49585;BME280;35491;49.142;9.210;2023-05-20T13:55:21;99544.16;;;23.63;42.26
49585;BME280;35491;49.142;9.210;2023-05-20T13:56:25;99540.88;;;23.78;41.96
49585;BME280;35491;49.142;9.210;2023-05-20T13:57:26;99541.41;;;23.63;42.32
49585;BME280;35491;49.142;9.210;2023-05-20T13:58:30;99545.06;;;23.68;42.09
49585;BME280;35491;49.142;9.210;2023-05-20T13:59:31;99538.81;;;23.68;41.87
49585;BME280;35491;49.142;9.210;2023-05-20T14:00:34;99542.78;;;23.77;41.61
49585;BME280;35491;49.142;9.210;2023-05-20T14:01:36;99541.91;;;23.89;41.64
49585;BME280;35491;49.142;9.210;2023-05-20T14:02:44;99532.88;;;23.88;41.34
49585;BME280;35491;49.142;9.210;2023-05-20T14:03:45;99536.47;;;23.89;41.07
49585;BME280;35491;49.142;9.210;2023-05-20T14:04:48;99537.75;;;23.69;41.48
49585;BME280;35491;49.142;9.210;2023-05-20T14:05:49;99527.31;;;23.66;41.78
49585;BME280;35491;49.142;9.210;2023-05-20T14:06:54;99533.72;;;23.89;41.14
49585;BME280;35491;49.142;9.210;2023-05-20T14:07:59;99533.63;;;23.83;41.62
49585;BME280;35491;49.142;9.210;2023-05-20T14:09:03;99532.69;;;23.78;41.47
49585;BME280;35491;49.142;9.210;2023-05-20T14:10:08;99532.47;;;23.79;41.58
49585;BME280;35491;49.142;9.210;2023-05-20T14:11:09;99529.16;;;23.77;41.52
49585;BME280;35491;49.142;9.210;2023-05-20T14:12:12;99534.56;;;23.60;41.89
49585;BME280;35491;49.142;9.210;2023-05-20T14:13:13;99528.13;;;23.66;41.84
49585;BME280;35491;49.142;9.210;2023-05-20T14:14:17;99523.06;;;23.58;41.87
49585;BME280;35491;49.142;9.210;2023-05-20T14:15:18;99528.66;;;23.80;41.68
49585;BME280;35491;49.142;9.210;2023-05-20T14:16:22;99520.84;;;23.72;41.39
49585;BME280;35491;49.142;9.210;2023-05-20T14:17:23;99522.19;;;23.70;41.50
49585;BME280;35491;49.142;9.210;2023-05-20T14:18:27;99526.22;;;23.67;41.57
49585;BME280;35491;49.142;9.210;2023-05-20T14:19:30;99525.34;;;23.78;41.65
49585;BME280;35491;49.142;9.210;2023-05-20T14:20:31;99526.03;;;23.86;41.83
49585;BME280;35491;49.142;9.210;2023-05-20T14:21:35;99522.38;;;23.80;41.38
49585;BME280;35491;49.142;9.210;2023-05-20T14:22:36;99527.34;;;23.83;41.78
49585;BME280;35491;49.142;9.210;2023-05-20T14:23:40;99513.50;;;24.02;41.70
49585;BME280;35491;49.142;9.210;2023-05-20T14:24:47;99523.28;;;24.32;41.02
49585;BME280;35491;49.142;9.210;2023-05-20T14:25:48;99528.25;;;24.18;41.01
49585;BME280;35491;49.142;9.210;2023-05-20T14:26:52;99518.66;;;24.32;40.90
49585;BME280;35491;49.142;9.210;2023-05-20T14:27:53;99512.50;;;24.42;41.01
49585;BME280;35491;49.142;9.210;2023-05-20T14:28:57;99515.66;;;24.51;41.15
49585;BME280;35491;49.142;9.210;2023-05-20T14:29:58;99512.31;;;24.66;41.26
49585;BME280;35491;49.142;9.210;2023-05-20T14:31:03;99506.31;;;24.47;40.86
49585;BME280;35491;49.142;9.210;2023-05-20T14:32:06;99515.50;;;24.40;41.36
49585;BME280;35491;49.142;9.210;2023-05-20T14:33:08;99516.41;;;24.29;41.31
49585;BME280;35491;49.142;9.210;2023-05-20T14:34:12;99511.63;;;24.36;41.14
49585;BME280;35491;49.142;9.210;2023-05-20T14:35:13;99508.47;;;24.44;41.11
49585;BME280;35491;49.142;9.210;2023-05-20T14:36:17;99511.63;;;24.36;41.13
49585;BME280;35491;49.142;9.210;2023-05-20T14:37:18;99500.94;;;24.69;40.58
49585;BME280;35491;49.142;9.210;2023-05-20T14:38:22;99512.50;;;24.76;40.48
49585;BME280;35491;49.142;9.210;2023-05-20T14:39:23;99505.03;;;24.54;40.82
49585;BME280;35491;49.142;9.210;2023-05-20T14:40:30;99511.09;;;24.39;41.23
49585;BME280;35491;49.142;9.210;2023-05-20T14:41:31;99500.84;;;24.47;41.04
49585;BME280;35491;49.142;9.210;2023-05-20T14:42:35;99500.09;;;24.51;41.06
49585;BME280;35491;49.142;9.210;2023-05-20T14:43:36;99494.97;;;24.55;40.98
49585;BME280;35491;49.142;9.210;2023-05-20T14:44:39;99490.06;;;24.57;41.16
49585;BME280;35491;49.142;9.210;2023-05-20T14:45:40;99490.56;;;24.71;40.96
49585;BME280;35491;49.142;9.210;2023-05-20T14:46:46;99494.75;;;24.79;40.48
49585;BME280;35491;49.142;9.210;2023-05-20T14:47:47;99481.94;;;25.01;40.34
49585;BME280;35491;49.142;9.210;2023-05-20T14:48:51;99486.53;;;24.96;40.35
49585;BME280;35491;49.142;9.210;2023-05-20T14:49:52;99489.22;;;25.13;40.36
49585;BME280;35491;49.142;9.210;2023-05-20T14:50:55;99480.56;;;25.43;39.68
49585;BME280;35491;49.142;9.210;2023-05-20T14:51:59;99486.06;;;25.48;39.31
49585;BME280;35491;49.142;9.210;2023-05-20T14:53:00;99480.97;;;25.35;39.42
49585;BME280;35491;49.142;9.210;2023-05-20T14:54:05;99479.41;;;25.17;39.51
49585;BME280;35491;49.142;9.210;2023-05-20T14:55:06;99470.69;;;25.20;39.71
49585;BME280;35491;49.142;9.210;2023-05-20T14:56:13;99478.78;;;25.10;39.50
49585;BME280;35491;49.142;9.210;2023-05-20T14:57:16;99475.53;;;25.13;39.82
49585;BME280;35491;49.142;9.210;2023-05-20T14:58:17;99481.09;;;25.23;39.47
49585;BME280;35491;49.142;9.210;2023-05-20T14:59:21;99472.03;;;25.17;39.51
49585;BME280;35491;49.142;9.210;2023-05-20T15:00:22;99480.03;;;25.02;39.56
49585;BME280;35491;49.142;9.210;2023-05-20T15:01:26;99479.25;;;24.84;39.97
49585;BME280;35491;49.142;9.210;2023-05-20T15:02:27;99470.34;;;24.72;40.37
49585;BME280;35491;49.142;9.210;2023-05-20T15:03:30;99472.31;;;24.76;40.21
49585;BME280;35491;49.142;9.210;2023-05-20T15:04:32;99480.22;;;24.56;40.65
49585;BME280;35491;49.142;9.210;2023-05-20T15:05:35;99466.22;;;24.52;40.25
49585;BME280;35491;49.142;9.210;2023-05-20T15:06:37;99471.34;;;24.49;40.32
49585;BME280;35491;49.142;9.210;2023-05-20T15:07:41;99464.00;;;24.49;40.51
49585;BME280;35491;49.142;9.210;2023-05-20T15:08:42;99471.88;;;24.85;39.90
49585;BME280;35491;49.142;9.210;2023-05-20T15:09:46;99471.78;;;24.74;40.11
49585;BME280;35491;49.142;9.210;2023-05-20T15:10:47;99478.25;;;24.90;40.00
49585;BME280;35491;49.142;9.210;2023-05-20T15:11:53;99473.34;;;25.15;39.48
49585;BME280;35491;49.142;9.210;2023-05-20T15:12:54;99469.34;;;25.45;38.95
49585;BME280;35491;49.142;9.210;2023-05-20T15:13:58;99469.06;;;25.46;39.11
49585;BME280;35491;49.142;9.210;2023-05-20T15:15:00;99468.81;;;25.75;38.66
49585;BME280;35491;49.142;9.210;2023-05-20T15:16:04;99465.94;;;25.92;38.21
49585;BME280;35491;49.142;9.210;2023-05-20T15:17:06;99479.56;;;25.82;38.56
49585;BME280;35491;49.142;9.210;2023-05-20T15:18:09;99477.91;;;25.81;38.14
49585;BME280;35491;49.142;9.210;2023-05-20T15:19:13;99476.78;;;25.77;38.34
49585;BME280;35491;49.142;9.210;2023-05-20T15:20:14;99479.25;;;25.78;38.28
49585;BME280;35491;49.142;9.210;2023-05-20T15:21:17;99482.97;;;25.67;38.58
49585;BME280;35491;49.142;9.210;2023-05-20T15:22:18;99484.59;;;25.63;38.96
49585;BME280;35491;49.142;9.210;2023-05-20T15:23:22;99482.84;;;25.57;38.71
49585;BME280;35491;49.142;9.210;2023-05-20T15:24:23;99488.88;;;25.31;39.03
49585;BME280;35491;49.142;9.210;2023-05-20T15:25:27;99492.56;;;24.98;40.07
49585;BME280;35491;49.142;9.210;2023-05-20T15:26:30;99493.63;;;24.74;40.35
49585;BME280;35491;49.142;9.210;2023-05-20T15:27:34;99483.78;;;24.73;40.48
49585;BME280;35491;49.142;9.210;2023-05-20T15:28:38;99486.75;;;24.94;40.14
49585;BME280;35491;49.142;9.210;2023-05-20T15:29:39;99486.22;;;24.92;40.29
49585;BME280;35491;49.142;9.210;2023-05-20T15:30:43;99484.47;;;24.86;39.86
49585;BME280;35491;49.142;9.210;2023-05-20T15:31:44;99475.06;;;24.99;40.01
49585;BME280;35491;49.142;9.210;2023-05-20T15:32:48;99483.91;;;24.67;40.29
49585;BME280;35491;49.142;9.210;2023-05-20T15:33:49;99476.91;;;24.54;40.50
49585;BME280;35491;49.142;9.210;2023-05-20T15:34:52;99480.31;;;24.44;40.90
49585;BME280;35491;49.142;9.210;2023-05-20T15:35:53;99483.28;;;24.59;40.83
49585;BME280;35491;49.142;9.210;2023-05-20T15:36:57;99492.31;;;24.43;40.64
49585;BME280;35491;49.142;9.210;2023-05-20T15:37:58;99493.75;;;24.28;41.25
49585;BME280;35491;49.142;9.210;2023-05-20T15:39:02;99500.09;;;24.34;41.13
49585;BME280;35491;49.142;9.210;2023-05-20T15:40:04;99484.22;;;24.31;41.19
49585;BME280;35491;49.142;9.210;2023-05-20T15:41:08;99493.31;;;24.20;41.33
49585;BME280;35491;49.142;9.210;2023-05-20T15:42:11;99493.09;;;24.21;41.50
49585;BME280;35491;49.142;9.210;2023-05-20T15:43:20;99499.53;;;24.15;41.41
49585;BME280;35491;49.142;9.210;2023-05-20T15:44:21;99489.94;;;24.29;41.48
49585;BME280;35491;49.142;9.210;2023-05-20T15:45:26;99493.88;;;24.56;40.96
49585;BME280;35491;49.142;9.210;2023-05-20T15:46:27;99490.25;;;24.50;40.78
49585;BME280;35491;49.142;9.210;2023-05-20T15:47:31;99483.88;;;24.27;41.32
49585;BME280;35491;49.142;9.210;2023-05-20T15:48:34;99493.63;;;24.23;41.69
49585;BME280;35491;49.142;9.210;2023-05-20T15:49:37;99491.28;;;24.27;41.73
49585;BME280;35491;49.142;9.210;2023-05-20T15:50:40;99495.97;;;24.32;41.61
49585;BME280;35491;49.142;9.210;2023-05-20T15:51:41;99492.91;;;24.11;41.71
49585;BME280;35491;49.142;9.210;2023-05-20T15:52:45;99489.69;;;23.97;41.86
49585;BME280;35491;49.142;9.210;2023-05-20T15:53:49;99496.81;;;23.98;42.10
49585;BME280;35491;49.142;9.210;2023-05-20T15:54:50;99489.47;;;23.87;41.98
49585;BME280;35491;49.142;9.210;2023-05-20T15:55:54;99486.50;;;23.88;42.26
49585;BME280;35491;49.142;9.210;2023-05-20T15:56:55;99488.63;;;23.98;41.79
49585;BME280;35491;49.142;9.210;2023-05-20T15:57:58;99483.97;;;23.98;42.13
49585;BME280;35491;49.142;9.210;2023-05-20T15:59:02;99482.75;;;24.06;41.83
49585;BME280;35491;49.142;9.210;2023-05-20T16:00:07;99480.22;;;23.88;42.08
49585;BME280;35491;49.142;9.210;2023-05-20T16:01:10;99488.16;;;23.89;42.17
49585;BME280;35491;49.142;9.210;2023-05-20T16:02:13;99481.38;;;23.92;42.04
49585;BME280;35491;49.142;9.210;2023-05-20T16:03:17;99481.91;;;24.06;41.83
49585;BME280;35491;49.142;9.210;2023-05-20T16:04:18;99483.44;;;23.84;42.49
49585;BME280;35491;49.142;9.210;2023-05-20T16:05:22;99478.06;;;23.90;42.52
49585;BME280;35491;49.142;9.210;2023-05-20T16:06:25;99493.81;;;23.71;42.63
49585;BME280;35491;49.142;9.210;2023-05-20T16:07:29;99490.75;;;23.67;43.06
49585;BME280;35491;49.142;9.210;2023-05-20T16:08:30;99485.47;;;23.60;43.09
49585;BME280;35491;49.142;9.210;2023-05-20T16:09:36;99491.34;;;23.69;43.07
49585;BME280;35491;49.142;9.210;2023-05-20T16:10:37;99484.09;;;23.75;43.18
49585;BME280;35491;49.142;9.210;2023-05-20T16:11:41;99481.19;;;23.81;42.82
49585;BME280;35491;49.142;9.210;2023-05-20T16:12:42;99496.06;;;23.74;42.94
49585;BME280;35491;49.142;9.210;2023-05-20T16:13:46;99488.78;;;23.62;43.30
49585;BME280;35491;49.142;9.210;2023-05-20T16:14:50;99499.44;;;23.64;43.27
49585;BME280;35491;49.142;9.210;2023-05-20T16:15:53;99496.09;;;23.62;43.11
49585;BME280;35491;49.142;9.210;2023-05-20T16:16:57;99496.69;;;23.64;43.07
49585;BME280;35491;49.142;9.210;2023-05-20T16:18:01;99489.50;;;23.58;42.96
49585;BME280;35491;49.142;9.210;2023-05-20T16:19:02;99496.50;;;23.53;43.12
49585;BME280;35491;49.142;9.210;2023-05-20T16:20:06;99485.50;;;23.48;43.35
49585;BME280;35491;49.142;9.210;2023-05-20T16:21:08;99490.19;;;23.36;43.42
49585;BME280;35491;49.142;9.210;2023-05-20T16:22:11;99500.94;;;23.43;43.47
49585;BME280;35491;49.142;9.210;2023-05-20T16:23:13;99486.88;;;23.34;43.27
49585;BME280;35491;49.142;9.210;2023-05-20T16:24:17;99492.13;;;23.24;43.72
49585;BME280;35491;49.142;9.210;2023-05-20T16:25:18;99496.13;;;23.33;43.63
49585;BME280;35491;49.142;9.210;2023-05-20T16:26:21;99483.56;;;23.32;43.28
49585;BME280;35491;49.142;9.210;2023-05-20T16:27:22;99482.88;;;23.25;43.72
49585;BME280;35491;49.142;9.210;2023-05-20T16:28:26;99489.97;;;23.26;43.56
49585;BME280;35491;49.142;9.210;2023-05-20T16:29:27;99480.38;;;23.23;43.70
49585;BME280;35491;49.142;9.210;2023-05-20T16:30:33;99484.19;;;23.22;43.93
49585;BME280;35491;49.142;9.210;2023-05-20T16:31:37;99481.81;;;23.14;43.54
49585;BME280;35491;49.142;9.210;2023-05-20T16:32:38;99479.69;;;23.16;43.74
49585;BME280;35491;49.142;9.210;2023-05-20T16:35:32;99489.97;;;23.26;43.61
49585;BME280;35491;49.142;9.210;2023-05-20T16:36:34;99486.44;;;23.13;43.94
49585;BME280;35491;49.142;9.210;2023-05-20T16:37:37;99486.78;;;23.17;43.92
49585;BME280;35491;49.142;9.210;2023-05-20T16:38:39;99492.75;;;23.02;44.14
49585;BME280;35491;49.142;9.210;2023-05-20T16:39:42;99491.91;;;23.13;44.00
49585;BME280;35491;49.142;9.210;2023-05-20T16:41:52;99488.72;;;23.04;44.22
49585;BME280;35491;49.142;9.210;2023-05-20T16:42:56;99494.38;;;23.15;43.97
49585;BME280;35491;49.142;9.210;2023-05-20T16:43:57;99498.41;;;23.24;43.91
49585;BME280;35491;49.142;9.210;2023-05-20T16:45:01;99496.28;;;23.14;43.98
49585;BME280;35491;49.142;9.210;2023-05-20T16:46:05;99497.34;;;23.13;44.13
49585;BME280;35491;49.142;9.210;2023-05-20T16:48:10;99495.59;;;23.19;44.35
49585;BME280;35491;49.142;9.210;2023-05-20T16:50:15;99499.94;;;23.32;43.70
49585;BME280;35491;49.142;9.210;2023-05-20T16:51:19;99503.13;;;23.29;44.10
49585;BME280;35491;49.142;9.210;2023-05-20T16:52:20;99507.38;;;23.36;43.98
49585;BME280;35491;49.142;9.210;2023-05-20T16:53:24;99503.22;;;23.34;44.11
49585;BME280;35491;49.142;9.210;2023-05-20T16:54:25;99500.31;;;23.24;44.28
49585;BME280;35491;49.142;9.210;2023-05-20T16:55:29;99498.28;;;23.31;44.51
49585;BME280;35491;49.142;9.210;2023-05-20T16:56:32;99499.94;;;23.32;44.35
49585;BME280;35491;49.142;9.210;2023-05-20T16:57:36;99498.88;;;23.33;44.50
49585;BME280;35491;49.142;9.210;2023-05-20T16:58:39;99503.00;;;23.35;44.41
49585;BME280;35491;49.142;9.210;2023-05-20T16:59:41;99501.00;;;23.31;44.87
49585;BME280;35491;49.142;9.210;2023-05-20T17:00:44;99497.91;;;23.15;45.09
49585;BME280;35491;49.142;9.210;2023-05-20T17:01:48;99499.94;;;23.20;45.11
49585;BME280;35491;49.142;9.210;2023-05-20T17:02:52;99497.47;;;23.18;45.19
49585;BME280;35491;49.142;9.210;2023-05-20T17:03:55;99497.47;;;23.18;45.29
49585;BME280;35491;49.142;9.210;2023-05-20T17:05:07;99496.03;;;23.28;45.17
49585;BME280;35491;49.142;9.210;2023-05-20T17:06:31;99493.44;;;23.21;45.29
49585;BME280;35491;49.142;9.210;2023-05-20T17:07:35;99489.03;;;23.32;44.90
49585;BME280;35491;49.142;9.210;2023-05-20T17:09:38;99492.03;;;23.18;45.38
49585;BME280;35491;49.142;9.210;2023-05-20T17:18:48;99490.13;;;23.07;46.13
49585;BME280;35491;49.142;9.210;2023-05-20T17:38:20;99497.91;;;22.63;47.22
49585;BME280;35491;49.142;9.210;2023-05-20T17:39:28;99504.66;;;22.60;47.32
49585;BME280;35491;49.142;9.210;2023-05-20T17:40:33;99503.09;;;22.76;47.15
49585;BME280;35491;49.142;9.210;2023-05-20T17:41:34;99503.25;;;22.57;47.21
49585;BME280;35491;49.142;9.210;2023-05-20T17:42:39;99508.44;;;22.59;47.20
49585;BME280;35491;49.142;9.210;2023-05-20T17:43:41;99506.66;;;22.65;46.92
49585;BME280;35491;49.142;9.210;2023-05-20T17:44:45;99508.56;;;22.76;46.74
49585;BME280;35491;49.142;9.210;2023-05-20T17:45:47;99513.41;;;22.74;47.14
49585;BME280;35491;49.142;9.210;2023-05-20T17:46:51;99510.56;;;22.57;47.35
49585;BME280;35491;49.142;9.210;2023-05-20T17:47:52;99501.34;;;22.58;47.41
49585;BME280;35491;49.142;9.210;2023-05-20T17:48:56;99509.41;;;22.53;47.31
49585;BME280;35491;49.142;9.210;2023-05-20T17:49:58;99501.56;;;22.56;47.49
49585;BME280;35491;49.142;9.210;2023-05-20T17:51:03;99502.75;;;22.61;47.33
49585;BME280;35491;49.142;9.210;2023-05-20T17:52:05;99514.69;;;22.59;47.49
49585;BME280;35491;49.142;9.210;2023-05-20T17:53:10;99505.81;;;22.64;47.24
49585;BME280;35491;49.142;9.210;2023-05-20T17:54:13;99507.13;;;22.62;47.31
49585;BME280;35491;49.142;9.210;2023-05-20T18:00:55;99505.00;;;22.40;48.10
49585;BME280;35491;49.142;9.210;2023-05-20T18:06:16;99520.59;;;22.33;47.64
49585;BME280;35491;49.142;9.210;2023-05-20T18:07:20;99512.22;;;22.46;47.50
49585;BME280;35491;49.142;9.210;2023-05-20T18:08:26;99514.59;;;22.42;47.41
49585;BME280;35491;49.142;9.210;2023-05-20T18:09:30;99527.44;;;22.35;47.55
49585;BME280;35491;49.142;9.210;2023-05-20T18:10:34;99519.63;;;22.39;47.73
49585;BME280;35491;49.142;9.210;2023-05-20T18:12:38;99530.34;;;22.40;47.70
49585;BME280;35491;49.142;9.210;2023-05-20T18:32:10;99530.59;;;21.96;48.39
49585;BME280;35491;49.142;9.210;2023-05-20T18:33:12;99535.22;;;22.08;48.09
49585;BME280;35491;49.142;9.210;2023-05-20T18:34:16;99540.66;;;22.08;48.30
49585;BME280;35491;49.142;9.210;2023-05-20T18:35:17;99528.59;;;22.04;48.17
49585;BME280;35491;49.142;9.210;2023-05-20T18:36:21;99534.50;;;22.01;48.36
49585;BME280;35491;49.142;9.210;2023-05-20T18:37:27;99532.09;;;21.92;48.66
49585;BME280;35491;49.142;9.210;2023-05-20T18:38:44;99529.06;;;22.01;48.50
49585;BME280;35491;49.142;9.210;2023-05-20T18:39:50;99536.63;;;21.99;48.44
49585;BME280;35491;49.142;9.210;2023-05-20T18:40:53;99536.63;;;21.99;48.30
49585;BME280;35491;49.142;9.210;2023-05-20T18:41:58;99531.91;;;22.06;48.00
49585;BME280;35491;49.142;9.210;2023-05-20T18:42:59;99531.09;;;22.05;48.24
49585;BME280;35491;49.142;9.210;2023-05-20T18:45:49;99529.28;;;21.99;48.36
49585;BME280;35491;49.142;9.210;2023-05-20T18:46:50;99527.41;;;22.00;48.34
49585;BME280;35491;49.142;9.210;2023-05-20T18:47:57;99530.22;;;21.93;48.46
49585;BME280;35491;49.142;9.210;2023-05-20T18:48:59;99536.47;;;21.93;48.56
49585;BME280;35491;49.142;9.210;2023-05-20T18:50:03;99528.56;;;21.92;48.51
49585;BME280;35491;49.142;9.210;2023-05-20T18:51:05;99528.69;;;21.97;48.43
49585;BME280;35491;49.142;9.210;2023-05-20T18:52:08;99524.41;;;21.89;48.48
49585;BME280;35491;49.142;9.210;2023-05-20T18:53:10;99518.63;;;21.97;48.34
49585;BME280;35491;49.142;9.210;2023-05-20T18:54:13;99528.31;;;21.93;48.42
49585;BME280;35491;49.142;9.210;2023-05-20T18:55:15;99526.81;;;21.97;48.16
49585;BME280;35491;49.142;9.210;2023-05-20T18:56:18;99525.22;;;21.90;48.62
49585;BME280;35491;49.142;9.210;2023-05-20T18:57:21;99528.56;;;21.92;48.35
49585;BME280;35491;49.142;9.210;2023-05-20T18:58:24;99525.03;;;21.91;48.16
